• Join FlightAware (Why Join?)
  • Login
  • US Flag 
02:46AM EDT


 

Airport Tracker/Info


-or-


 

Live Flight TrackerFlight Track Log ✈ EJA831 ✈ 19-Jul-2013 ✈ KTEB - KRKD

Flight Track Log - Related Links

Times and Time Zones

All times are in EDT time to prevent confusion due to time zone crossing. See the EJA831 flight status page for this flight to view local times or setup timezone preferences in your user account.

Time Position Orientation Groundspeed Altitude Reporting Facility
EDT Latitude Longitude Course Direction KTS MPH feet Rate Location/Type
08:01AM 40.8167 -74.1167 270° West 189 217 1,500  Level New York TRACON
08:02AM 40.8167 -74.1833 270° West 192 221 2,600 2,040 Climbing New York TRACON
08:03AM 40.8333 -74.2500 288° West 241 277 5,900 1,620 Climbing New York TRACON
08:04AM 40.9167 -74.2333 North 283 326 6,100 60 Climbing New York TRACON
08:05AM 41.0000 -74.2000 17° North 288 331 6,100  Level New York TRACON
08:06AM 41.0667 -74.1667 21° North 285 328 6,100 540 Level New York TRACON
08:07AM 41.1647 -74.1056 25° Northeast 297 342 7,500 1,560 Climbing Boston Center
08:08AM 41.1936 -73.9819 73° East 284 327 10,100 2,340 Climbing Boston Center
08:09AM 41.2181 -73.8722 73° East 316 364 12,200 2,280 Climbing Boston Center
08:10AM 41.2489 -73.7322 74° East 342 394 14,700 2,280 Climbing Boston Center
08:11AM 41.2750 -73.6167 73° East 356 410 16,800 2,280 Climbing Boston Center
08:12AM 41.3097 -73.4792 71° East 356 410 19,300 2,220 Climbing Boston Center
08:13AM 41.3381 -73.3442 74° East 361 415 21,300 1,860 Climbing Boston Center
08:14AM 41.3703 -73.2092 72° East 367 422 23,100 1,800 Climbing Boston Center
08:15AM 41.4108 -73.0767 68° East 372 428 24,900 1,800 Climbing Boston Center
08:16AM 41.4675 -72.9581 57° Northeast 377 434 26,700 1,320 Climbing Boston Center
08:17AM 41.5264 -72.8339 58° Northeast 384 442 27,600 900 Climbing Boston Center
08:18AM 41.5789 -72.7119 60° Northeast 379 436 28,500 660 Climbing Boston Center
08:19AM 41.6333 -72.5928 59° Northeast 403 464 29,000 240 Climbing Boston Center
08:20AM 41.6981 -72.4567 57° Northeast 414 476 29,000  Level Boston Center
08:21AM 41.7625 -72.3150 59° Northeast 424 488 29,000  Level Boston Center
08:22AM 41.8292 -72.1697 58° Northeast 437 503 29,000  Level Boston Center
08:23AM 41.8933 -72.0303 58° Northeast 442 509 29,000  Level Boston Center
08:24AM 41.9550 -71.8872 60° Northeast 442 509 29,000  Level Boston Center
08:25AM 42.0189 -71.7472 58° Northeast 442 509 29,000  Level Boston Center
08:26AM 42.0847 -71.6064 58° Northeast 442 509 29,000  Level Boston Center
08:27AM 42.1564 -71.4572 57° Northeast 442 509 29,000  Level Boston Center
08:28AM 42.2197 -71.3158 59° Northeast 437 503 29,000  Level Boston Center
08:29AM 42.2828 -71.1744 59° Northeast 437 503 29,000 -480 Level Boston Center
08:30AM 42.3478 -71.0242 60° Northeast 442 509 28,100 -960 Descending Boston Center
08:32AM 42.4564 -70.8894 42° Northeast 442 509 27,000 -840 Descending Boston Center
08:33AM 42.5364 -70.7944 41° Northeast 436 502 26,300 -840 Descending Boston Center
08:34AM 42.6350 -70.6958 36° Northeast 430 495 25,400 -900 Descending Boston Center
08:35AM 42.7381 -70.6194 29° Northeast 430 495 24,500 -720 Descending Boston Center
08:36AM 42.8497 -70.5708 18° North 410 472 24,000 -300 Descending Boston Center
08:37AM 42.9508 -70.4969 28° Northeast 410 472 24,000 -360 Level Boston Center
08:38AM 43.0406 -70.3861 42° Northeast 418 481 23,300 -1,380 Descending Boston Center
08:39AM 43.1239 -70.2808 43° Northeast 418 481 21,300 -1,980 Descending Boston Center
08:40AM 43.2094 -70.1753 42° Northeast 418 481 19,400 -2,100 Descending Boston Center
08:41AM 43.3011 -70.0636 42° Northeast 401 461 17,100 -2,040 Descending Boston Center
08:42AM 43.3719 -69.9722 43° Northeast 396 456 15,400 -1,920 Descending Boston Center
08:43AM 43.4572 -69.8714 41° Northeast 373 429 13,300 -1,920 Descending Boston Center
08:44AM 43.5219 -69.7856 44° Northeast 360 414 11,600 -1,800 Descending Boston Center
08:45AM 43.5992 -69.6992 39° Northeast 340 391 9,800 -1,860 Descending Boston Center
08:46AM 43.6603 -69.6419 34° Northeast 307 353 7,900 -1,860 Descending Boston Center
08:47AM 43.7336 -69.5722 34° Northeast 295 339 6,100 -1,740 Descending Boston Center
08:48AM 43.7928 -69.5147 35° Northeast 295 339 4,500 -1,740 Descending Boston Center
08:49AM 43.8597 -69.4511 34° Northeast 277 319 2,700 -1,020 Descending Boston Center
08:50AM 43.9086 -69.4025 36° Northeast 250 288 2,500 -120 Descending Boston Center
08:51AM 43.9697 -69.3533 30° Northeast 231 266 2,500  Level Boston Center
08:52AM 44.0189 -69.3219 25° Northeast 219 252 2,500  Level Boston Center
08:53AM 44.0722 -69.2903 23° Northeast 208 239 2,500  Level Boston Center
08:54AM 44.1092 -69.2681 23° Northeast 176 203 2,500 -600 Level Boston Center
08:55AM 44.0908 -69.2053 112° Southeast 118 136 1,400 -900 Descending Boston Center
08:56AM 44.0750 -69.1628 117° Southeast 118 136 700 -360 Descending Boston Center
08:57AM 44.0758 -69.1222 88° East 118 136 700  Level Boston Center
08:59AM 44.0601 -69.0993 112° Southeast  Level Estimated
09:06AM 44.0601 -69.0993 112° Southeast  Level Estimated
09:07AM 44.0601 -69.0993 112° Southeast  Level Estimated
09:08AM 44.0601 -69.0993 112° Southeast  Level Estimated
09:09AM 44.0601 -69.0993 112° Southeast  Level Estimated
09:10AM 44.0601 -69.0993 112° Southeast  Level Estimated
09:11AM 44.0601 -69.0993 112° Southeast  Level Estimated
09:12AM 44.0601 -69.0993 112° Southeast  Level Estimated
09:13AM 44.0601 -69.0993 112° Southeast  Level Estimated